Time;durP1;ratioP1;P1;durP2;ratioP2;P2;SDS_P1;SDS_P2;PMS_P1;PMS_P2;Temp;Humidity;BMP_temperature;BMP_pressure;BME280_temperature;BME280_humidity;BME280_pressure;Samples;Min_cycle;Max_cycle;Signal;HPM_P1;HPM_P2
2022/10/12 00:00:13;;;;;;;7.63;4.83;;;;;;;9.97;83.56;102593.94;6204293;28;20237;-75
2022/10/12 00:03:34;;;;;;;10.23;3.60;;;;;;;10.08;82.88;102587.91;6208154;28;20244;-75
2022/10/12 00:06:56;;;;;;;8.60;4.10;;;;;;;9.99;83.35;102594.69;6203188;28;20224;-75
2022/10/12 00:10:17;;;;;;;5.40;3.63;;;;;;;10.12;83.39;102589.50;6201048;28;20225;-74
2022/10/12 00:13:38;;;;;;;4.20;2.80;;;;;;;10.11;82.89;102588.66;6211320;28;20618;-74
2022/10/12 00:16:59;;;;;;;4.77;3.90;;;;;;;10.18;82.88;102589.16;6216302;28;20229;-75
2022/10/12 00:20:20;;;;;;;3.63;3.17;;;;;;;10.23;82.64;102584.34;6208709;28;20241;-74
2022/10/12 00:23:43;;;;;;;4.03;3.50;;;;;;;10.14;82.65;102588.44;6216810;28;20355;-74
2022/10/12 00:27:04;;;;;;;3.07;2.60;;;;;;;10.08;83.04;102588.78;6207599;28;20249;-74
2022/10/12 00:30:25;;;;;;;8.53;4.27;;;;;;;10.06;83.54;102576.34;6215294;28;20218;-74
2022/10/12 00:33:47;;;;;;;3.57;2.67;;;;;;;10.04;84.08;102583.66;6214349;28;20225;-75
2022/10/12 00:37:08;;;;;;;6.17;3.87;;;;;;;10.03;83.97;102590.03;6209493;28;20237;-74
2022/10/12 00:40:30;;;;;;;4.80;3.80;;;;;;;10.11;84.16;102579.69;6212534;28;20224;-74
2022/10/12 00:43:53;;;;;;;4.27;3.10;;;;;;;10.11;83.82;102577.88;6212828;28;20229;-75
2022/10/12 00:47:20;;;;;;;4.73;2.47;;;;;;;9.95;84.35;102579.69;6213251;28;20229;-75
2022/10/12 00:50:41;;;;;;;4.87;2.63;;;;;;;9.99;84.58;102573.16;6213960;28;20225;-75
2022/10/12 00:54:05;;;;;;;4.67;3.77;;;;;;;10.00;83.94;102585.69;6199788;28;20233;-74
2022/10/12 00:57:28;;;;;;;4.50;2.40;;;;;;;9.97;83.99;102587.69;6203636;28;20350;-74
2022/10/12 01:00:49;;;;;;;6.93;3.03;;;;;;;9.96;84.16;102596.72;6211323;28;20939;-75
2022/10/12 01:04:10;;;;;;;5.60;3.57;;;;;;;9.91;84.01;102586.22;6205074;28;20857;-75
2022/10/12 01:07:31;;;;;;;6.40;4.97;;;;;;;9.84;84.36;102592.06;6214465;28;20405;-75
2022/10/12 01:10:51;;;;;;;3.83;2.20;;;;;;;9.81;84.33;102590.41;6223670;28;20520;-74
2022/10/12 01:14:14;;;;;;;8.40;3.37;;;;;;;9.78;84.71;102601.38;6212757;28;20226;-75
2022/10/12 01:17:45;;;;;;;5.37;2.30;;;;;;;9.78;85.18;102600.50;6209578;28;20237;-75
2022/10/12 01:21:15;;;;;;;3.93;2.67;;;;;;;9.85;85.02;102597.34;6203274;28;20233;-75
2022/10/12 01:24:43;;;;;;;6.77;3.77;;;;;;;9.99;84.50;102594.69;6211717;28;20274;-75
2022/10/12 01:28:18;;;;;;;3.90;3.50;;;;;;;9.99;83.98;102589.31;6208043;28;21095;-74
2022/10/12 01:31:46;;;;;;;5.00;2.83;;;;;;;10.03;84.60;102576.56;6207602;28;20228;-74
2022/10/12 01:35:13;;;;;;;4.50;2.97;;;;;;;9.88;85.43;102581.03;6200214;28;20364;-74
2022/10/12 01:38:42;;;;;;;4.37;2.90;;;;;;;9.54;86.97;102583.91;6211421;28;20497;-74
2022/10/12 01:42:08;;;;;;;2.80;2.23;;;;;;;9.46;87.86;102578.09;6214421;28;20256;-74
2022/10/12 01:45:29;;;;;;;9.10;2.87;;;;;;;9.45;88.11;102569.16;6204823;28;20229;-74
2022/10/12 01:48:54;;;;;;;3.37;2.50;;;;;;;9.55;88.20;102573.06;6211386;28;20245;-74
2022/10/12 01:52:27;;;;;;;7.53;2.77;;;;;;;9.58;87.64;102566.63;6216588;28;20601;-73
2022/10/12 01:55:53;;;;;;;3.53;3.23;;;;;;;9.76;87.31;102564.72;6211621;28;20236;-75
2022/10/12 01:59:20;;;;;;;4.93;3.23;;;;;;;9.89;86.97;102563.03;6206567;28;20562;-74
2022/10/12 02:02:50;;;;;;;4.07;2.70;;;;;;;10.00;86.72;102552.47;6208619;28;20232;-75
2022/10/12 02:06:17;;;;;;;5.13;4.20;;;;;;;9.99;86.95;102554.28;6198602;28;20232;-74
2022/10/12 02:09:39;;;;;;;5.73;3.07;;;;;;;10.09;87.08;102557.31;6209550;28;20517;-74
2022/10/12 02:13:05;;;;;;;5.97;3.03;;;;;;;9.86;87.86;102553.31;6220844;28;20228;-73
2022/10/12 02:16:31;;;;;;;3.57;2.23;;;;;;;9.95;88.01;102549.22;6209198;28;20233;-74
2022/10/12 02:19:56;;;;;;;4.00;3.13;;;;;;;10.10;87.15;102554.56;6212099;28;20236;-73
2022/10/12 02:23:18;;;;;;;2.97;2.67;;;;;;;10.28;86.12;102547.22;6213802;28;20601;-73
2022/10/12 02:26:44;;;;;;;5.57;2.97;;;;;;;10.26;86.25;102541.03;6215209;28;20623;-74
2022/10/12 02:30:07;;;;;;;7.70;3.17;;;;;;;10.21;86.44;102538.63;6201532;28;20236;-74
2022/10/12 02:33:35;;;;;;;2.67;2.47;;;;;;;10.34;86.04;102547.72;6211478;28;20229;-75
2022/10/12 02:37:04;;;;;;;4.27;2.47;;;;;;;10.27;85.97;102537.38;6204148;28;20228;-74
2022/10/12 02:40:34;;;;;;;3.00;2.40;;;;;;;10.23;86.07;102528.63;6203523;28;20229;-74
2022/10/12 02:43:59;;;;;;;4.13;2.33;;;;;;;10.21;86.72;102526.97;6207507;28;20221;-74
2022/10/12 02:47:22;;;;;;;5.70;2.77;;;;;;;10.39;85.98;102515.91;6196535;28;20324;-74
2022/10/12 02:50:44;;;;;;;10.17;3.43;;;;;;;10.32;86.59;102516.41;6211849;28;20543;-75
2022/10/12 02:54:04;;;;;;;12.17;3.50;;;;;;;10.31;86.44;102515.53;6206555;28;20225;-74
2022/10/12 02:57:27;;;;;;;2.40;2.20;;;;;;;10.45;86.11;102512.00;6207544;28;20230;-75
2022/10/12 03:00:48;;;;;;;6.97;3.03;;;;;;;10.27;86.48;102516.69;6206103;28;20236;-74
2022/10/12 03:04:09;;;;;;;5.47;2.30;;;;;;;10.39;86.83;102515.03;6211510;28;20236;-74
2022/10/12 03:07:30;;;;;;;3.30;2.50;;;;;;;10.48;86.00;102519.88;6219949;28;20236;-75
2022/10/12 03:10:51;;;;;;;4.13;2.90;;;;;;;10.52;86.61;102515.16;6211265;28;20229;-75
2022/10/12 03:14:15;;;;;;;7.53;4.80;;;;;;;10.48;86.06;102514.50;6222130;28;20324;-75
2022/10/12 03:17:36;;;;;;;3.07;2.50;;;;;;;10.44;86.38;102515.66;6210997;28;20241;-75
2022/10/12 03:20:57;;;;;;;5.23;2.33;;;;;;;10.43;86.78;102513.91;6216948;28;20838;-75
2022/10/12 03:24:18;;;;;;;4.23;2.37;;;;;;;10.51;86.22;102508.91;6217038;28;20244;-74
2022/10/12 03:27:39;;;;;;;6.40;2.73;;;;;;;10.44;86.44;102515.66;6215432;28;20343;-74
2022/10/12 03:31:01;;;;;;;4.53;2.47;;;;;;;10.49;86.21;102513.53;6213942;28;20224;-74
2022/10/12 03:34:22;;;;;;;4.33;2.40;;;;;;;10.55;86.11;102512.28;6214543;28;20229;-74
2022/10/12 03:37:43;;;;;;;3.93;3.53;;;;;;;10.60;85.69;102508.31;6213635;28;20674;-75
2022/10/12 03:41:04;;;;;;;5.77;2.50;;;;;;;10.61;85.14;102512.78;6216695;28;20615;-74
2022/10/12 03:44:25;;;;;;;6.47;2.90;;;;;;;10.41;86.12;102508.59;6219870;28;20317;-74
2022/10/12 03:47:47;;;;;;;6.00;3.23;;;;;;;10.46;85.85;102511.03;6215681;28;20618;-75
2022/10/12 03:51:08;;;;;;;15.40;3.07;;;;;;;10.49;86.77;102510.84;6190417;28;20325;-75
2022/10/12 03:54:29;;;;;;;3.07;2.70;;;;;;;10.59;86.20;102514.69;6189373;28;20316;-75
2022/10/12 03:57:50;;;;;;;2.57;2.13;;;;;;;10.41;86.79;102507.72;6188148;28;20238;-76
2022/10/12 04:01:11;;;;;;;3.67;2.40;;;;;;;10.53;86.50;102515.09;6197877;28;20233;-75
2022/10/12 04:04:33;;;;;;;5.47;2.77;;;;;;;10.55;86.62;102505.06;6214303;28;20217;-75
2022/10/12 04:07:54;;;;;;;7.40;3.17;;;;;;;10.50;86.38;102517.06;6221592;28;20316;-74
2022/10/12 04:11:15;;;;;;;6.00;2.33;;;;;;;10.42;87.44;102517.56;6193069;28;20234;-75
2022/10/12 04:14:36;;;;;;;4.20;2.37;;;;;;;10.60;86.36;102510.19;6191209;28;20233;-75
2022/10/12 04:17:57;;;;;;;2.27;2.03;;;;;;;10.55;86.07;102521.25;6190259;28;20242;-75
2022/10/12 04:21:22;;;;;;;5.97;3.67;;;;;;;10.44;86.44;102502.16;6194392;28;20309;-76
2022/10/12 04:24:43;;;;;;;5.67;2.43;;;;;;;10.41;87.11;102503.22;6189267;28;20261;-75
2022/10/12 04:28:04;;;;;;;3.97;2.20;;;;;;;10.37;87.06;102508.88;6188981;28;20885;-75
2022/10/12 04:31:25;;;;;;;3.43;2.23;;;;;;;10.44;87.15;102497.66;6212203;28;20229;-75
2022/10/12 04:34:46;;;;;;;11.30;3.43;;;;;;;10.48;86.28;102497.44;6212560;28;20260;-74
2022/10/12 04:38:08;;;;;;;4.40;2.17;;;;;;;10.55;86.64;102493.41;6213907;28;20427;-75
2022/10/12 04:41:29;;;;;;;5.03;2.13;;;;;;;10.54;86.29;102487.13;6208053;28;20626;-74
2022/10/12 04:44:50;;;;;;;4.27;3.27;;;;;;;10.38;87.16;102492.63;6204763;28;20253;-74
2022/10/12 04:48:11;;;;;;;3.33;2.50;;;;;;;10.32;87.00;102487.63;6205403;28;22001;-74
2022/10/12 04:51:31;;;;;;;4.53;2.43;;;;;;;10.29;87.36;102493.19;6208644;28;20229;-75
2022/10/12 04:54:53;;;;;;;2.97;2.77;;;;;;;10.23;87.68;102501.66;6211014;28;20548;-75
2022/10/12 04:58:14;;;;;;;5.47;2.50;;;;;;;10.18;87.71;102494.84;6208059;28;20241;-75
2022/10/12 05:01:35;;;;;;;9.67;3.57;;;;;;;10.20;88.13;102498.31;6211286;28;20668;-75
2022/10/12 05:04:56;;;;;;;5.83;4.20;;;;;;;10.15;87.58;102503.09;6207230;28;20312;-75
2022/10/12 05:08:17;;;;;;;4.07;1.83;;;;;;;10.06;88.18;102495.53;6208440;28;20237;-75
2022/10/12 05:11:40;;;;;;;7.10;3.37;;;;;;;9.90;88.29;102498.28;6208519;28;20256;-75
2022/10/12 05:15:00;;;;;;;4.37;2.10;;;;;;;9.88;88.29;102510.09;6211576;28;20224;-75
2022/10/12 05:18:21;;;;;;;5.73;3.23;;;;;;;9.75;88.82;102506.41;6211742;28;20216;-75
2022/10/12 05:21:42;;;;;;;6.97;2.60;;;;;;;9.75;88.87;102499.19;6191107;28;20538;-75
2022/10/12 05:25:03;;;;;;;6.43;2.13;;;;;;;9.76;88.85;102506.34;6206877;28;20229;-75
2022/10/12 05:28:25;;;;;;;3.37;2.50;;;;;;;9.78;88.85;102504.41;6209205;28;20225;-75
2022/10/12 05:31:46;;;;;;;5.83;2.87;;;;;;;9.75;88.59;102503.72;6207988;28;20233;-75
2022/10/12 05:35:07;;;;;;;3.73;2.80;;;;;;;9.78;88.56;102509.81;6186076;28;20445;-74
2022/10/12 05:38:28;;;;;;;4.97;2.40;;;;;;;9.77;88.19;102505.34;6170273;28;20229;-75
2022/10/12 05:41:50;;;;;;;4.43;2.70;;;;;;;9.74;88.62;102500.19;6182806;28;20316;-74
2022/10/12 05:45:12;;;;;;;6.23;2.00;;;;;;;9.74;88.71;102499.31;6175654;28;20504;-77
2022/10/12 05:48:33;;;;;;;7.50;4.60;;;;;;;9.68;88.80;102499.66;6174367;28;20230;-75
2022/10/12 05:51:55;;;;;;;2.70;2.30;;;;;;;9.63;89.16;102497.25;6176250;28;20639;-76
2022/10/12 05:55:16;;;;;;;5.57;2.83;;;;;;;9.65;89.09;102501.59;6185020;28;21493;-75
2022/10/12 05:58:36;;;;;;;31.13;3.43;;;;;;;9.66;88.62;102506.00;6182699;28;20230;-75
2022/10/12 06:01:59;;;;;;;5.70;2.90;;;;;;;9.68;88.30;102508.59;6183625;28;20502;-74
2022/10/12 06:05:19;;;;;;;3.87;3.07;;;;;;;9.72;88.05;102510.13;6182349;28;20241;-73
2022/10/12 06:08:41;;;;;;;5.17;3.23;;;;;;;9.73;88.22;102508.31;6212659;28;20521;-75
2022/10/12 06:12:01;;;;;;;5.27;2.63;;;;;;;9.68;88.36;102505.88;6209749;28;20225;-75
2022/10/12 06:15:22;;;;;;;3.33;2.50;;;;;;;9.63;88.61;102508.00;6197312;28;20774;-69
2022/10/12 06:18:45;;;;;;;6.47;2.87;;;;;;;9.65;89.75;102506.97;6200918;28;20252;-69
2022/10/12 06:22:06;;;;;;;3.60;2.60;;;;;;;9.70;89.13;102506.66;6202950;28;20225;-69
2022/10/12 06:25:27;;;;;;;4.67;2.87;;;;;;;9.72;88.80;102507.44;6202923;28;20244;-68
2022/10/12 06:28:47;;;;;;;6.97;3.03;;;;;;;9.76;89.08;102517.09;6197731;28;20225;-69
2022/10/12 06:32:08;;;;;;;6.10;3.27;;;;;;;9.79;88.66;102508.81;6196111;28;20994;-75
2022/10/12 06:35:31;;;;;;;6.83;3.53;;;;;;;9.90;88.20;102503.69;6206734;28;20224;-76
2022/10/12 06:38:52;;;;;;;8.30;2.80;;;;;;;9.84;88.52;102505.88;6196986;28;20229;-75
2022/10/12 06:42:13;;;;;;;11.07;2.47;;;;;;;9.91;87.81;102510.78;6202139;28;21263;-75
2022/10/12 06:45:43;;;;;;;5.93;2.30;;;;;;;10.02;88.03;102519.09;6203822;28;20520;-76
2022/10/12 06:49:03;;;;;;;3.63;2.37;;;;;;;10.16;87.47;102516.47;6206585;28;20627;-76
2022/10/12 06:52:26;;;;;;;7.87;3.20;;;;;;;10.18;87.16;102519.94;6175183;28;20574;-76
2022/10/12 06:55:46;;;;;;;6.37;2.17;;;;;;;10.12;87.43;102512.22;6201148;28;20233;-76
2022/10/12 06:59:08;;;;;;;3.47;2.27;;;;;;;10.29;87.12;102520.16;6205771;28;20226;-76
2022/10/12 07:02:29;;;;;;;3.27;2.20;;;;;;;10.20;87.62;102522.56;6206826;28;20610;-76
2022/10/12 07:05:49;;;;;;;3.77;2.00;;;;;;;10.29;87.43;102522.84;6209810;28;20575;-75
2022/10/12 07:09:12;;;;;;;12.90;2.97;;;;;;;10.40;86.73;102523.06;6181148;28;20237;-76
2022/10/12 07:12:34;;;;;;;6.30;3.33;;;;;;;10.45;86.75;102525.47;6207130;28;20510;-77
2022/10/12 07:15:55;;;;;;;6.10;1.80;;;;;;;10.48;86.00;102525.28;6202770;28;21232;-74
2022/10/12 07:19:16;;;;;;;1.67;1.57;;;;;;;10.51;85.80;102524.22;6163531;28;1072803;-76
2022/10/12 07:22:37;;;;;;;3.70;1.60;;;;;;;10.45;86.46;102525.47;6222510;28;20240;-75
2022/10/12 07:25:59;;;;;;;7.53;3.27;;;;;;;10.52;85.34;102526.81;6211847;28;20237;-75
2022/10/12 07:29:20;;;;;;;2.43;2.10;;;;;;;10.78;84.95;102527.88;6202675;28;20225;-73
2022/10/12 07:32:43;;;;;;;2.87;2.13;;;;;;;11.25;84.94;102529.25;6208166;28;20237;-73
2022/10/12 07:36:04;;;;;;;6.77;3.27;;;;;;;11.01;83.54;102527.28;6173595;28;20562;-72
2022/10/12 07:39:26;;;;;;;2.40;2.17;;;;;;;10.93;83.23;102529.63;6184173;28;20240;-73
2022/10/12 07:42:48;;;;;;;5.27;3.90;;;;;;;11.05;82.17;102529.69;6161788;28;20340;-74
2022/10/12 07:46:09;;;;;;;3.77;2.47;;;;;;;11.22;82.77;102528.59;6173375;28;20269;-74
2022/10/12 07:49:30;;;;;;;4.77;2.60;;;;;;;11.33;81.92;102527.91;6194984;28;20233;-74
2022/10/12 07:52:51;;;;;;;4.50;1.90;;;;;;;11.45;80.57;102537.91;6197905;28;20240;-72
2022/10/12 07:56:14;;;;;;;7.33;2.10;;;;;;;11.30;80.48;102528.97;6205500;28;20225;-73
2022/10/12 07:59:37;;;;;;;6.37;2.10;;;;;;;11.43;80.43;102532.56;6194922;28;20237;-74
2022/10/12 08:02:58;;;;;;;7.47;2.20;;;;;;;11.40;80.04;102519.28;6202894;28;20237;-74
2022/10/12 08:06:21;;;;;;;5.53;2.47;;;;;;;11.68;79.07;102534.56;6195525;28;20256;-73
2022/10/12 08:09:42;;;;;;;3.77;1.90;;;;;;;11.59;79.40;102518.94;6198923;28;20245;-74
2022/10/12 08:13:03;;;;;;;3.10;2.10;;;;;;;11.74;78.46;102528.75;6189702;28;20229;-73
2022/10/12 08:16:25;;;;;;;3.77;2.13;;;;;;;11.94;77.40;102534.53;6188797;28;20240;-74
2022/10/12 08:19:47;;;;;;;3.50;2.50;;;;;;;12.03;76.08;102527.66;6196268;28;20304;-73
2022/10/12 08:23:07;;;;;;;4.27;2.83;;;;;;;12.02;76.07;102543.00;6206342;28;20224;-73
2022/10/12 08:26:29;;;;;;;4.33;2.03;;;;;;;12.30;75.25;102531.16;6207966;28;20644;-73
2022/10/12 08:29:50;;;;;;;13.50;2.93;;;;;;;12.36;74.71;102532.56;6215542;28;20626;-73
2022/10/12 08:33:12;;;;;;;2.23;1.73;;;;;;;12.51;74.04;102526.94;6210744;28;20232;-73
2022/10/12 08:36:34;;;;;;;3.57;2.00;;;;;;;12.69;72.94;102532.88;6194746;28;20245;-73
2022/10/12 08:39:54;;;;;;;5.23;2.37;;;;;;;12.79;72.42;102529.41;6208035;28;20225;-72
2022/10/12 08:43:23;;;;;;;4.17;2.93;;;;;;;12.74;72.10;102531.59;6200529;28;21012;-73
2022/10/12 08:46:45;;;;;;;8.90;2.70;;;;;;;12.91;72.41;102530.38;6198653;28;20415;-73
2022/10/12 08:50:14;;;;;;;5.73;2.30;;;;;;;13.12;71.90;102534.25;6207890;28;20222;-73
2022/10/12 08:53:39;;;;;;;2.70;1.77;;;;;;;13.49;71.19;102537.84;6191421;28;20638;-73
2022/10/12 08:57:00;;;;;;;8.03;2.27;;;;;;;13.23;71.17;102530.75;6196212;28;21066;-73
2022/10/12 09:00:21;;;;;;;3.27;2.03;;;;;;;13.54;71.58;102522.06;6197171;28;20599;-73
2022/10/12 09:03:53;;;;;;;8.53;2.10;;;;;;;13.57;69.25;102530.00;6205969;28;20553;-73
2022/10/12 09:07:20;;;;;;;2.57;2.33;;;;;;;13.97;68.90;102520.56;6205597;28;20252;-73
2022/10/12 09:10:47;;;;;;;6.43;1.77;;;;;;;13.72;68.87;102519.84;6202278;28;20877;-73
2022/10/12 09:14:11;;;;;;;3.60;2.53;;;;;;;14.32;67.82;102513.31;6199518;28;20840;-72
2022/10/12 09:17:37;;;;;;;6.00;2.73;;;;;;;13.94;68.13;102509.94;6191289;28;20604;-74
2022/10/12 09:21:01;;;;;;;4.60;1.80;;;;;;;14.03;67.50;102511.97;6190073;28;20233;-73
2022/10/12 09:24:27;;;;;;;4.07;3.20;;;;;;;14.64;65.79;102507.19;6211054;28;20229;-72
2022/10/12 09:27:48;;;;;;;3.43;2.27;;;;;;;14.72;65.60;102510.16;6181555;28;20241;-73
2022/10/12 09:31:22;;;;;;;3.97;1.50;;;;;;;15.92;62.85;102499.16;6175172;28;21820;-72
2022/10/12 09:34:44;;;;;;;3.83;2.50;;;;;;;16.46;59.05;102498.94;6180092;28;20245;-73
2022/10/12 09:38:06;;;;;;;4.20;2.30;;;;;;;18.01;53.61;102503.75;6181123;28;20229;-72
2022/10/12 09:41:33;;;;;;;4.67;1.77;;;;;;;22.28;43.61;102496.47;6179415;28;20237;-74
2022/10/12 09:45:00;;;;;;;2.70;1.90;;;;;;;24.66;38.16;102494.69;6175723;28;20225;-74
2022/10/12 09:48:23;;;;;;;2.13;1.63;;;;;;;24.60;36.43;102493.56;6194572;28;20241;-73
2022/10/12 09:51:44;;;;;;;4.70;1.75;;;;;;;24.89;36.17;102489.13;6205537;28;20232;-72
2022/10/12 09:55:20;;;;;;;8.02;2.33;;;;;;;24.65;34.01;102493.00;6200867;28;20225;-73
2022/10/12 09:58:50;;;;;;;5.47;2.10;;;;;;;25.84;32.24;102491.63;6200070;28;20692;-73
2022/10/12 10:02:15;;;;;;;5.18;1.42;;;;;;;24.68;34.63;102489.84;6189735;28;20230;-73
2022/10/12 10:05:38;;;;;;;2.65;1.80;;;;;;;26.61;32.50;102488.91;6198624;28;20233;-73
2022/10/12 10:08:58;;;;;;;4.05;1.75;;;;;;;27.77;29.10;102488.88;6198346;28;20233;-73
2022/10/12 10:12:26;;;;;;;2.45;2.15;;;;;;;28.86;28.15;102488.28;6195177;28;20613;-73
2022/10/12 10:15:50;;;;;;;4.47;2.90;;;;;;;28.83;27.36;102484.03;6193651;28;20241;-73
2022/10/12 10:19:18;;;;;;;4.43;1.17;;;;;;;28.22;28.31;102469.56;6173837;28;20293;-73
2022/10/12 10:22:47;;;;;;;4.63;2.78;;;;;;;27.70;28.37;102473.09;6193596;28;20256;-73
2022/10/12 10:26:11;;;;;;;6.43;1.80;;;;;;;28.72;27.88;102473.59;6185506;28;20281;-73
2022/10/12 10:29:37;;;;;;;4.75;1.90;;;;;;;28.76;27.49;102469.31;6196538;28;20233;-73
2022/10/12 10:33:13;;;;;;;2.30;1.73;;;;;;;29.00;28.21;102474.16;6200279;28;20635;-73
2022/10/12 10:36:38;;;;;;;4.38;1.83;;;;;;;29.87;25.23;102476.34;6193138;28;20217;-73
2022/10/12 10:39:59;;;;;;;4.00;2.25;;;;;;;28.02;28.50;102468.69;6189769;28;20253;-72
2022/10/12 10:43:26;;;;;;;2.88;1.45;;;;;;;29.63;26.40;102464.06;6191170;28;20237;-72
2022/10/12 10:46:47;;;;;;;4.57;2.03;;;;;;;30.07;25.59;102459.50;6201267;28;20233;-72
2022/10/12 10:50:25;;;;;;;5.05;1.75;;;;;;;29.50;25.89;102453.00;6201760;28;20224;-71
2022/10/12 10:53:48;;;;;;;4.07;1.60;;;;;;;29.13;25.99;102453.81;6190384;28;20226;-71
2022/10/12 10:57:16;;;;;;;5.18;1.45;;;;;;;27.46;27.82;102447.88;6185964;28;20838;-72
2022/10/12 11:00:42;;;;;;;4.43;2.38;;;;;;;29.33;26.02;102439.88;6199987;28;20240;-72
2022/10/12 11:04:07;;;;;;;3.95;2.60;;;;;;;29.82;24.97;102426.94;6169250;28;20233;-72
2022/10/12 11:07:35;;;;;;;3.53;2.50;;;;;;;28.97;25.46;102432.09;6198569;28;22059;-73
2022/10/12 11:11:00;;;;;;;5.75;2.17;;;;;;;28.12;26.48;102424.72;6201948;28;20232;-72
2022/10/12 11:14:27;;;;;;;3.95;1.75;;;;;;;29.54;24.93;102420.91;6179344;28;20590;-72
2022/10/12 11:17:51;;;;;;;2.85;1.00;;;;;;;30.52;23.84;102410.94;6178579;28;20226;-73
2022/10/12 11:21:18;;;;;;;2.47;1.77;;;;;;;30.84;22.84;102409.69;6172234;28;20324;-72
2022/10/12 11:24:44;;;;;;;7.85;1.73;;;;;;;30.12;24.36;102406.81;6177886;28;20233;-72
2022/10/12 11:28:06;;;;;;;4.45;1.40;;;;;;;27.90;25.33;102400.16;6171260;28;20620;-71
2022/10/12 11:31:32;;;;;;;2.05;1.08;;;;;;;28.01;25.40;102394.88;6176151;28;20249;-72
2022/10/12 11:34:57;;;;;;;2.35;1.30;;;;;;;29.49;23.61;102383.75;6169282;28;20230;-72
2022/10/12 11:38:24;;;;;;;9.15;2.30;;;;;;;31.71;21.86;102381.28;6173039;28;20221;-73
2022/10/12 11:41:50;;;;;;;1.50;1.10;;;;;;;29.18;23.59;102399.31;6199353;28;20241;-73
2022/10/12 11:45:20;;;;;;;2.33;1.20;;;;;;;30.39;23.48;102388.81;6200112;28;20241;-73
2022/10/12 11:48:50;;;;;;;2.25;1.20;;;;;;;31.41;22.69;102381.34;6201084;28;20534;-73
2022/10/12 11:52:11;;;;;;;1.58;1.42;;;;;;;30.12;23.42;102376.19;6200788;28;20233;-72
2022/10/12 11:55:45;;;;;;;4.20;2.47;;;;;;;31.10;22.04;102372.31;6201733;28;21054;-72
2022/10/12 11:59:17;;;;;;;1.00;0.93;;;;;;;30.19;24.24;102375.03;6202747;28;20614;-72
2022/10/12 12:02:41;;;;;;;4.53;1.67;;;;;;;28.78;25.08;102372.75;6182326;28;20237;-72
2022/10/12 12:06:35;;;;;;;3.55;1.92;;;;;;;30.52;23.68;102344.94;6175229;28;20249;-72
2022/10/12 12:09:56;;;;;;;2.70;0.80;;;;;;;28.18;24.90;102350.91;6185590;28;20240;-73
2022/10/12 12:13:21;;;;;;;1.70;1.60;;;;;;;28.38;25.45;102344.25;6195308;28;20257;-68
2022/10/12 12:16:44;;;;;;;3.08;1.52;;;;;;;29.09;24.17;102339.50;6178815;28;20258;-68
2022/10/12 12:21:09;;;;;;;1.75;1.08;;;;;;;31.11;22.13;102340.56;6174510;28;20234;-68
2022/10/12 12:24:30;;;;;;;4.18;0.98;;;;;;;27.26;26.70;102341.66;6106443;28;20598;-67
2022/10/12 12:27:53;;;;;;;2.85;1.42;;;;;;;27.76;26.11;102335.56;6187506;28;20249;-67
2022/10/12 12:31:17;;;;;;;2.25;1.05;;;;;;;23.73;32.75;102334.34;6186183;28;20233;-68
2022/10/12 12:34:53;;;;;;;6.05;2.28;;;;;;;23.97;32.23;102326.91;6197831;28;20241;-67
2022/10/12 12:38:20;;;;;;;3.63;1.77;;;;;;;27.10;27.39;102311.59;6203091;28;20230;-67
2022/10/12 12:41:52;;;;;;;3.45;2.03;;;;;;;22.62;34.01;102321.19;6199447;28;20271;-67
2022/10/12 12:45:40;;;;;;;3.42;1.52;;;;;;;20.33;38.06;102315.16;6204717;28;20236;-68
2022/10/12 12:49:03;;;;;;;2.95;1.02;;;;;;;19.77;40.02;102317.53;6204811;28;20229;-67
2022/10/12 12:52:28;;;;;;;3.17;2.65;;;;;;;19.87;40.39;102316.41;6189413;28;20238;-68
2022/10/12 12:56:02;;;;;;;5.70;1.85;;;;;;;20.30;39.83;102317.34;6177736;28;20225;-68
2022/10/12 12:59:47;;;;;;;4.60;1.95;;;;;;;19.69;41.12;102306.53;6201661;28;20224;-68
2022/10/12 13:03:27;;;;;;;3.60;1.52;;;;;;;19.89;40.70;102314.38;6204458;28;20237;-68
2022/10/12 13:07:16;;;;;;;5.28;1.42;;;;;;;18.82;42.74;102317.34;6189954;28;20248;-68
2022/10/12 13:11:02;;;;;;;3.67;1.85;;;;;;;19.44;41.68;102313.66;6189156;28;20229;-68
2022/10/12 13:14:40;;;;;;;1.70;1.38;;;;;;;23.22;36.52;102301.22;6182164;28;20229;-68
2022/10/12 13:18:24;;;;;;;4.38;1.45;;;;;;;25.35;31.84;102292.59;6197455;28;20229;-68
2022/10/12 13:21:48;;;;;;;1.52;0.98;;;;;;;22.12;35.78;102301.44;6199237;28;20260;-68
2022/10/12 13:25:19;;;;;;;4.03;1.40;;;;;;;22.56;35.44;102304.53;6200902;28;20225;-68
2022/10/12 13:28:42;;;;;;;2.78;1.75;;;;;;;20.88;37.96;102307.25;6201277;28;20237;-68
2022/10/12 13:32:10;;;;;;;4.40;1.30;;;;;;;19.18;42.29;102299.06;6191050;28;20229;-68
2022/10/12 13:35:36;;;;;;;1.80;1.30;;;;;;;18.89;42.25;102296.56;6191322;28;20240;-69
2022/10/12 13:38:58;;;;;;;2.45;1.98;;;;;;;18.41;43.72;102301.47;6180969;28;20253;-69
2022/10/12 13:42:26;;;;;;;2.00;1.80;;;;;;;18.91;43.33;102294.53;6164348;28;20261;-68
2022/10/12 13:45:49;;;;;;;4.38;1.35;;;;;;;18.87;44.22;102292.28;6165871;28;20237;-68
2022/10/12 13:49:13;;;;;;;2.83;2.17;;;;;;;18.93;43.32;102278.84;6200235;28;20249;-69
2022/10/12 13:52:34;;;;;;;1.17;1.08;;;;;;;19.98;42.46;102276.09;6190495;28;20237;-68
2022/10/12 13:56:05;;;;;;;2.17;1.02;;;;;;;22.94;36.14;102270.63;6196599;28;20228;-68
2022/10/12 13:59:29;;;;;;;3.60;1.35;;;;;;;24.45;33.60;102261.03;6181357;28;20222;-69
2022/10/12 14:02:57;;;;;;;4.07;1.42;;;;;;;25.17;31.58;102247.19;6198237;28;20245;-68
2022/10/12 14:06:27;;;;;;;4.00;1.77;;;;;;;24.51;32.44;102245.63;6199435;28;20523;-68
2022/10/12 14:09:54;;;;;;;5.05;1.88;;;;;;;22.73;34.80;102248.44;6191960;28;20224;-68
2022/10/12 14:13:27;;;;;;;3.10;1.00;;;;;;;21.39;37.37;102246.66;6181271;28;20560;-69
2022/10/12 14:16:50;;;;;;;1.98;0.95;;;;;;;23.32;34.96;102239.38;6198121;28;20824;-74
2022/10/12 14:20:18;;;;;;;3.03;2.05;;;;;;;25.25;31.20;102231.34;6189358;28;20240;-79
2022/10/12 14:23:43;;;;;;;0.98;0.95;;;;;;;25.50;30.92;102228.16;6186262;28;20312;-74
2022/10/12 14:27:06;;;;;;;3.15;1.90;;;;;;;23.68;33.27;102221.13;6184562;28;20229;-74
2022/10/12 14:30:30;;;;;;;2.03;1.50;;;;;;;23.53;33.07;102220.25;6183090;28;20234;-73
2022/10/12 14:33:51;;;;;;;2.35;1.45;;;;;;;22.82;34.02;102228.94;6193054;28;20229;-72
2022/10/12 14:37:28;;;;;;;2.97;1.00;;;;;;;21.04;36.54;102227.81;6192869;28;20260;-73
2022/10/12 14:40:49;;;;;;;1.85;0.85;;;;;;;21.41;36.39;102216.28;6181577;28;20232;-72
2022/10/12 14:44:12;;;;;;;5.00;2.22;;;;;;;22.16;35.89;102207.50;6189341;28;20656;-72
2022/10/12 14:47:37;;;;;;;5.72;1.73;;;;;;;21.15;37.26;102210.97;6188571;28;20234;-71
2022/10/12 14:50:58;;;;;;;2.83;1.90;;;;;;;21.71;36.52;102200.94;6187258;28;20316;-72
2022/10/12 14:54:21;;;;;;;3.38;1.02;;;;;;;21.22;37.32;102200.19;6195421;28;20236;-71
2022/10/12 14:57:42;;;;;;;1.45;0.90;;;;;;;20.64;38.34;102192.97;6186334;28;20241;-72
2022/10/12 15:01:03;;;;;;;4.85;1.23;;;;;;;19.70;40.09;102198.78;6192549;28;20229;-71
2022/10/12 15:04:24;;;;;;;5.88;1.95;;;;;;;19.13;40.74;102201.09;6187090;28;20229;-71
2022/10/12 15:07:45;;;;;;;1.80;1.05;;;;;;;18.20;42.58;102200.69;6203687;28;20225;-71
2022/10/12 15:11:10;;;;;;;8.02;1.17;;;;;;;18.43;43.10;102187.47;6189668;28;20229;-71
2022/10/12 15:14:31;;;;;;;1.88;1.35;;;;;;;17.89;43.32;102184.78;6195106;28;20237;-71
2022/10/12 15:17:52;;;;;;;2.38;1.02;;;;;;;17.46;44.54;102182.63;6189784;28;20935;-71
2022/10/12 15:21:13;;;;;;;2.05;1.05;;;;;;;17.34;45.20;102178.38;6178500;28;21691;-70
2022/10/12 15:24:34;;;;;;;2.70;1.98;;;;;;;16.95;46.27;102179.47;6194768;28;20515;-70
2022/10/12 15:27:57;;;;;;;1.05;0.95;;;;;;;16.79;46.81;102182.78;6181428;28;20221;-70
2022/10/12 15:31:18;;;;;;;1.52;1.27;;;;;;;16.86;46.50;102166.69;6199257;28;20682;-70
2022/10/12 15:34:39;;;;;;;1.13;1.02;;;;;;;16.95;46.28;102161.25;6189839;28;20327;-69
2022/10/12 15:38:00;;;;;;;4.30;1.35;;;;;;;16.80;46.45;102165.44;6196560;28;20232;-70
2022/10/12 15:41:24;;;;;;;3.53;1.55;;;;;;;16.78;46.84;102157.41;6177903;28;20996;-70
2022/10/12 15:44:46;;;;;;;2.38;1.60;;;;;;;16.60;47.63;102152.84;6202545;28;20343;-70
2022/10/12 15:48:09;;;;;;;4.07;1.00;;;;;;;16.45;47.95;102146.06;6196509;28;20237;-70
2022/10/12 15:51:30;;;;;;;1.58;1.17;;;;;;;16.47;48.18;102144.06;6191950;28;20226;-70